Time;durP1;ratioP1;P1;durP2;ratioP2;P2;SDS_P1;SDS_P2;PMS_P1;PMS_P2;Temp;Humidity;BMP_temperature;BMP_pressure;BME280_temperature;BME280_humidity;BME280_pressure;Samples;Min_cycle;Max_cycle;Signal;HPM_P1;HPM_P2
2023/05/14 00:01:53;;;;;;;3.92;3.38;;;15.70;99.90;;;;;;5052953;28;20025;-57
2023/05/14 00:04:19;;;;;;;6.05;4.05;;;15.70;99.90;;;;;;5052622;28;20041;-58
2023/05/14 00:06:45;;;;;;;3.88;3.50;;;15.70;99.90;;;;;;5052650;28;20036;-58
2023/05/14 00:09:11;;;;;;;5.03;3.77;;;15.70;99.90;;;;;;5038962;28;20051;-57
2023/05/14 00:11:38;;;;;;;6.30;4.00;;;15.70;99.90;;;;;;5052466;28;20306;-58
2023/05/14 00:14:03;;;;;;;4.22;3.38;;;15.70;99.90;;;;;;5052594;28;20052;-58
2023/05/14 00:16:29;;;;;;;4.40;4.00;;;15.70;99.90;;;;;;5052642;28;20475;-58
2023/05/14 00:18:55;;;;;;;6.85;4.20;;;15.70;99.90;;;;;;5052461;28;20053;-57
2023/05/14 00:21:21;;;;;;;6.97;4.20;;;15.70;99.90;;;;;;5052399;28;20036;-58
2023/05/14 00:23:46;;;;;;;7.97;5.30;;;15.60;99.90;;;;;;5041870;28;20082;-58
2023/05/14 00:26:12;;;;;;;5.57;4.55;;;15.70;99.90;;;;;;5036393;28;20036;-58
2023/05/14 00:28:37;;;;;;;7.65;5.20;;;15.70;99.90;;;;;;5047551;28;20112;-58
2023/05/14 00:31:03;;;;;;;6.43;4.30;;;15.70;99.90;;;;;;5032395;28;20065;-58
2023/05/14 00:33:29;;;;;;;6.15;4.57;;;15.60;99.90;;;;;;5042121;28;20060;-58
2023/05/14 00:35:55;;;;;;;5.97;4.10;;;15.60;99.90;;;;;;5043806;28;20037;-58
2023/05/14 00:38:22;;;;;;;6.60;4.35;;;15.60;99.90;;;;;;5037477;28;20028;-57
2023/05/14 00:40:50;;;;;;;4.82;3.30;;;15.50;99.90;;;;;;5050260;28;20395;-56
2023/05/14 00:43:20;;;;;;;6.65;3.83;;;15.50;99.90;;;;;;5048285;28;20510;-56
2023/05/14 00:45:51;;;;;;;5.28;3.65;;;15.40;99.90;;;;;;5040011;28;20411;-57
2023/05/14 00:48:17;;;;;;;5.10;3.25;;;15.40;99.90;;;;;;5030628;28;20021;-57
2023/05/14 00:50:42;;;;;;;6.53;3.63;;;15.40;99.90;;;;;;5032370;28;20083;-58
2023/05/14 00:53:09;;;;;;;7.93;3.60;;;15.40;99.90;;;;;;5040771;28;20399;-57
2023/05/14 00:55:39;;;;;;;6.10;4.00;;;15.30;99.90;;;;;;5037667;28;20034;-57
2023/05/14 00:58:10;;;;;;;8.13;4.07;;;15.30;99.90;;;;;;5030240;28;20030;-58
2023/05/14 01:00:37;;;;;;;4.85;4.18;;;15.20;99.90;;;;;;5035490;28;20082;-58
2023/05/14 01:03:03;;;;;;;5.05;4.57;;;15.20;99.90;;;;;;5042962;28;20044;-56
2023/05/14 01:05:41;;;;;;;8.73;4.22;;;15.20;99.90;;;;;;5033044;28;20071;-56
2023/05/14 01:08:51;;;;;;;6.30;4.40;;;15.20;99.90;;;;;;5047405;28;20033;-58
2023/05/14 01:11:21;;;;;;;5.03;3.90;;;15.20;99.90;;;;;;5021053;28;20518;-55
2023/05/14 01:14:13;;;;;;;4.75;4.10;;;15.20;99.90;;;;;;5032011;28;20037;-56
2023/05/14 01:16:39;;;;;;;13.43;5.03;;;15.10;99.90;;;;;;5020776;28;20445;-54
2023/05/14 01:19:09;;;;;;;7.87;3.53;;;15.10;99.90;;;;;;5034614;28;20025;-58
2023/05/14 01:21:41;;;;;;;8.82;4.22;;;15.20;99.90;;;;;;5046009;28;20201;-58
2023/05/14 01:24:08;;;;;;;4.28;3.83;;;15.10;99.90;;;;;;5048775;28;20021;-58
2023/05/14 01:26:35;;;;;;;8.05;4.75;;;15.10;99.90;;;;;;5031797;28;20025;-58
2023/05/14 01:29:20;;;;;;;;;;;15.00;99.90;;;;;;5035289;28;20094;-57
2023/05/14 01:31:49;;;;;;;9.75;5.30;;;15.00;99.90;;;;;;5046547;28;19905;-56
2023/05/14 01:34:17;;;;;;;5.13;4.10;;;15.00;99.90;;;;;;5043512;28;20026;-58
2023/05/14 01:36:43;;;;;;;4.95;4.45;;;15.00;99.90;;;;;;5031737;28;20022;-58
2023/05/14 01:39:10;;;;;;;6.72;4.95;;;15.00;99.90;;;;;;5034958;28;20036;-58
2023/05/14 01:41:38;;;;;;;;;;;15.00;99.90;;;;;;5036037;28;20036;-59
2023/05/14 01:44:04;;;;;;;4.80;4.32;;;15.00;99.90;;;;;;5035567;28;19905;-58
2023/05/14 01:46:32;;;;;;;8.38;4.88;;;15.00;99.90;;;;;;5043366;28;20082;-58
2023/05/14 01:48:59;;;;;;;6.43;5.30;;;15.00;99.90;;;;;;5054041;28;20043;-58
2023/05/14 01:51:25;;;;;;;7.25;4.88;;;14.90;99.90;;;;;;5035774;28;20022;-59
2023/05/14 01:53:51;;;;;;;6.45;4.95;;;14.90;99.90;;;;;;5035534;28;20557;-58
2023/05/14 01:56:21;;;;;;;5.82;5.22;;;14.90;99.90;;;;;;5035544;28;20025;-58
2023/05/14 01:58:47;;;;;;;5.75;5.25;;;14.80;99.90;;;;;;5035332;28;20022;-59
2023/05/14 02:01:13;;;;;;;6.95;5.90;;;14.80;99.90;;;;;;5035434;28;20037;-59
2023/05/14 02:03:38;;;;;;;8.15;5.82;;;14.80;99.90;;;;;;5035478;28;20380;-59
2023/05/14 02:06:04;;;;;;;9.35;5.82;;;14.80;99.90;;;;;;5035839;28;20021;-54
2023/05/14 02:08:30;;;;;;;7.25;4.85;;;14.80;99.90;;;;;;5033858;28;20547;-58
2023/05/14 02:10:56;;;;;;;7.13;4.65;;;14.70;99.90;;;;;;5035253;28;20043;-59
2023/05/14 02:13:21;;;;;;;6.90;4.63;;;14.70;99.90;;;;;;5033559;28;20376;-59
2023/05/14 02:15:48;;;;;;;5.40;4.40;;;14.60;99.90;;;;;;5033625;28;20053;-59
2023/05/14 02:18:13;;;;;;;10.48;4.80;;;14.60;99.90;;;;;;5051810;28;20029;-58
2023/05/14 02:20:39;;;;;;;8.52;5.40;;;14.60;99.90;;;;;;5037777;28;20040;-59
2023/05/14 02:23:05;;;;;;;7.32;4.80;;;14.60;99.90;;;;;;5033412;28;20116;-59
2023/05/14 02:25:31;;;;;;;8.23;4.50;;;14.60;99.90;;;;;;5034729;28;20483;-59
2023/05/14 02:27:56;;;;;;;10.13;5.45;;;14.70;99.90;;;;;;5035265;28;20029;-58
2023/05/14 02:30:22;;;;;;;8.40;5.57;;;14.70;99.90;;;;;;5044519;28;20029;-58
2023/05/14 02:32:48;;;;;;;9.25;6.30;;;14.70;99.90;;;;;;5034789;28;20068;-58
2023/05/14 02:35:13;;;;;;;9.55;5.32;;;14.70;99.90;;;;;;5042861;28;20112;-56
2023/05/14 02:37:39;;;;;;;6.40;5.53;;;14.60;99.90;;;;;;5041523;28;20033;-57
2023/05/14 02:40:06;;;;;;;6.90;5.45;;;14.70;99.90;;;;;;5035027;28;20369;-55
2023/05/14 02:42:31;;;;;;;10.40;5.57;;;14.70;99.90;;;;;;5042177;28;20029;-58
2023/05/14 02:44:57;;;;;;;10.23;4.97;;;14.70;99.90;;;;;;5033573;28;20059;-57
2023/05/14 02:47:23;;;;;;;10.45;5.28;;;14.70;99.90;;;;;;5034254;28;20558;-59
2023/05/14 02:49:48;;;;;;;9.30;5.72;;;14.70;99.90;;;;;;5032265;28;20033;-56
2023/05/14 02:52:14;;;;;;;7.72;6.30;;;14.70;99.90;;;;;;5036024;28;20026;-56
2023/05/14 02:54:40;;;;;;;6.07;5.50;;;14.70;99.90;;;;;;5051041;28;20021;-59
2023/05/14 02:57:05;;;;;;;11.50;6.50;;;14.70;99.90;;;;;;5045751;28;20017;-58
2023/05/14 02:59:31;;;;;;;10.57;6.80;;;14.70;99.90;;;;;;5043902;28;20068;-59
2023/05/14 03:01:57;;;;;;;7.07;5.88;;;14.70;99.90;;;;;;5042044;28;20113;-58
2023/05/14 03:04:22;;;;;;;13.60;6.85;;;14.70;99.90;;;;;;5049409;28;20128;-57
2023/05/14 03:06:48;;;;;;;9.50;7.10;;;14.60;99.90;;;;;;5050755;28;20463;-58
2023/05/14 03:09:14;;;;;;;7.15;6.45;;;14.50;99.90;;;;;;5038385;28;20033;-59
2023/05/14 03:11:39;;;;;;;10.55;7.15;;;14.50;99.90;;;;;;5048764;28;20545;-57
2023/05/14 03:14:05;;;;;;;12.68;7.45;;;14.50;99.90;;;;;;5053927;28;20565;-59
2023/05/14 03:16:31;;;;;;;10.73;9.30;;;14.50;99.90;;;;;;5048361;28;20067;-59
2023/05/14 03:18:57;;;;;;;9.30;8.25;;;14.50;99.90;;;;;;5037735;28;20029;-57
2023/05/14 03:21:22;;;;;;;9.05;7.97;;;14.50;99.90;;;;;;5034247;28;20089;-59
2023/05/14 03:23:48;;;;;;;10.30;8.48;;;14.50;99.90;;;;;;5037921;28;20067;-59
2023/05/14 03:26:13;;;;;;;8.60;7.75;;;14.40;99.90;;;;;;5044823;28;20032;-57
2023/05/14 03:28:39;;;;;;;10.57;9.43;;;14.40;99.90;;;;;;5048978;28;20029;-56
2023/05/14 03:31:05;;;;;;;14.27;9.55;;;14.30;99.90;;;;;;5038783;28;20029;-53
2023/05/14 03:33:31;;;;;;;9.93;8.93;;;14.40;99.90;;;;;;5048238;28;20021;-59
2023/05/14 03:35:57;;;;;;;10.65;8.00;;;14.30;99.90;;;;;;5047155;28;20048;-59
2023/05/14 03:38:22;;;;;;;10.52;8.75;;;14.30;99.90;;;;;;5034043;28;21340;-56
2023/05/14 03:40:48;;;;;;;9.43;8.48;;;14.40;99.90;;;;;;5034321;28;20025;-59
2023/05/14 03:43:15;;;;;;;13.48;8.00;;;14.30;99.90;;;;;;5042348;28;20488;-59
2023/05/14 03:45:40;;;;;;;13.10;9.65;;;14.40;99.90;;;;;;5037588;28;20017;-58
2023/05/14 03:48:06;;;;;;;11.55;9.65;;;14.30;99.90;;;;;;5038308;28;20400;-59
2023/05/14 03:50:32;;;;;;;9.68;8.68;;;14.30;99.90;;;;;;5042506;28;20043;-59
2023/05/14 03:52:58;;;;;;;10.40;9.27;;;14.30;99.90;;;;;;5032525;28;20399;-57
2023/05/14 03:55:23;;;;;;;12.60;11.05;;;14.30;99.90;;;;;;5032869;28;20032;-55
2023/05/14 03:57:49;;;;;;;10.38;8.77;;;14.40;99.90;;;;;;5032499;28;20038;-57
2023/05/14 04:00:15;;;;;;;10.80;9.15;;;14.30;99.90;;;;;;5030983;28;20480;-59
2023/05/14 04:02:41;;;;;;;14.45;9.95;;;14.30;99.90;;;;;;5036173;28;20037;-59
2023/05/14 04:05:07;;;;;;;11.13;9.45;;;14.30;99.90;;;;;;5042455;28;20044;-55
2023/05/14 04:07:33;;;;;;;12.20;10.85;;;14.30;99.90;;;;;;5048387;28;20025;-58
2023/05/14 04:09:59;;;;;;;15.63;11.38;;;14.30;99.90;;;;;;5050615;28;20037;-56
2023/05/14 04:12:25;;;;;;;11.93;10.82;;;14.30;99.90;;;;;;5031626;28;20030;-57
2023/05/14 04:14:51;;;;;;;13.43;11.93;;;14.30;99.90;;;;;;5032350;28;20030;-59
2023/05/14 04:17:17;;;;;;;18.08;12.82;;;14.40;99.90;;;;;;5032346;28;20057;-58
2023/05/14 04:19:43;;;;;;;14.18;12.77;;;14.30;99.90;;;;;;5032985;28;20049;-58
2023/05/14 04:22:09;;;;;;;13.60;11.98;;;14.30;99.90;;;;;;5033092;28;20480;-58
2023/05/14 04:24:34;;;;;;;14.35;12.40;;;14.40;99.90;;;;;;5032860;28;20022;-54
2023/05/14 04:27:00;;;;;;;13.75;11.90;;;14.40;99.90;;;;;;5032361;28;20029;-57
2023/05/14 04:29:26;;;;;;;15.18;12.73;;;14.40;99.90;;;;;;5032681;28;20025;-58
2023/05/14 04:31:52;;;;;;;13.52;11.85;;;14.50;99.90;;;;;;5032670;28;20079;-59
2023/05/14 04:34:18;;;;;;;15.07;12.77;;;14.50;99.90;;;;;;5035013;28;20108;-56
2023/05/14 04:36:43;;;;;;;13.07;11.68;;;14.50;99.90;;;;;;5045071;28;20116;-58
2023/05/14 04:39:11;;;;;;;17.40;13.65;;;14.60;99.90;;;;;;5046305;28;20107;-54
2023/05/14 04:41:36;;;;;;;21.48;12.82;;;14.60;99.90;;;;;;5035525;28;20484;-58
2023/05/14 04:44:02;;;;;;;17.40;13.52;;;14.70;99.90;;;;;;5035624;28;20032;-57
2023/05/14 04:46:28;;;;;;;13.35;11.93;;;14.70;99.90;;;;;;5038405;28;20041;-55
2023/05/14 04:48:55;;;;;;;12.23;10.93;;;14.60;99.90;;;;;;5032503;28;20123;-56
2023/05/14 04:51:21;;;;;;;15.82;11.82;;;14.70;99.90;;;;;;5044162;28;20025;-55
2023/05/14 04:53:46;;;;;;;13.77;11.90;;;14.70;99.90;;;;;;5034455;28;20025;-54
2023/05/14 04:56:12;;;;;;;19.65;12.80;;;14.80;99.90;;;;;;5052006;28;20028;-58
2023/05/14 04:58:38;;;;;;;12.32;11.10;;;14.80;99.90;;;;;;5033251;28;20151;-57
2023/05/14 05:01:04;;;;;;;19.13;12.93;;;14.80;99.90;;;;;;5038270;28;20036;-55
2023/05/14 05:03:31;;;;;;;15.23;11.10;;;14.90;99.90;;;;;;5038312;28;20025;-55
2023/05/14 05:05:56;;;;;;;17.27;11.57;;;14.90;99.90;;;;;;5040756;28;20282;-58
2023/05/14 05:08:22;;;;;;;13.45;12.13;;;15.00;99.90;;;;;;5036639;28;20025;-57
2023/05/14 05:10:48;;;;;;;13.50;12.10;;;15.00;99.90;;;;;;5042053;28;20033;-58
2023/05/14 05:13:15;;;;;;;14.40;10.95;;;15.00;99.90;;;;;;5035519;28;20028;-54
2023/05/14 05:15:42;;;;;;;19.83;11.38;;;15.00;99.90;;;;;;5033410;28;20021;-57
2023/05/14 05:18:08;;;;;;;13.10;11.13;;;15.00;99.90;;;;;;5050308;28;20242;-57
2023/05/14 05:20:34;;;;;;;11.30;10.10;;;15.00;99.90;;;;;;5038507;28;20596;-57
2023/05/14 05:22:59;;;;;;;13.52;10.77;;;15.00;99.90;;;;;;5036698;28;20116;-57
2023/05/14 05:25:26;;;;;;;11.52;10.35;;;15.10;99.90;;;;;;5032172;28;20061;-55
2023/05/14 05:27:52;;;;;;;11.27;10.02;;;15.10;99.90;;;;;;5034254;28;20028;-57
2023/05/14 05:30:18;;;;;;;11.68;9.35;;;15.20;99.90;;;;;;5032593;28;20490;-56
2023/05/14 05:32:44;;;;;;;10.02;7.82;;;15.20;99.90;;;;;;5031794;28;20014;-58
2023/05/14 05:35:09;;;;;;;12.43;9.57;;;15.20;99.90;;;;;;5034865;28;20508;-57
2023/05/14 05:37:35;;;;;;;10.93;8.52;;;15.10;99.90;;;;;;5033058;28;20125;-57
2023/05/14 05:40:01;;;;;;;8.85;7.22;;;15.20;99.90;;;;;;5032022;28;20388;-58
2023/05/14 05:42:26;;;;;;;8.55;7.60;;;15.20;99.90;;;;;;5030862;28;20030;-52
2023/05/14 05:44:52;;;;;;;10.55;7.97;;;15.30;99.90;;;;;;5034173;28;20476;-48
2023/05/14 05:47:18;;;;;;;9.55;8.45;;;15.30;99.90;;;;;;5031293;28;20477;-50
2023/05/14 05:49:44;;;;;;;10.65;8.52;;;15.30;99.90;;;;;;5031545;28;20029;-47
2023/05/14 05:52:09;;;;;;;8.30;7.30;;;15.30;99.90;;;;;;5032910;28;20029;-48
2023/05/14 05:54:35;;;;;;;10.85;8.13;;;15.40;99.90;;;;;;5031062;28;20022;-49
2023/05/14 05:57:01;;;;;;;9.45;7.68;;;15.50;99.90;;;;;;5037584;28;20408;-50
2023/05/14 05:59:26;;;;;;;6.97;6.32;;;15.50;99.90;;;;;;5046771;28;20024;-46
2023/05/14 06:01:52;;;;;;;7.25;6.43;;;15.50;99.90;;;;;;5034137;28;20080;-56
2023/05/14 06:04:18;;;;;;;9.27;7.38;;;15.60;99.90;;;;;;5037367;28;20027;-56
2023/05/14 06:06:43;;;;;;;9.38;6.25;;;15.60;99.90;;;;;;5037891;28;20029;-58
2023/05/14 06:09:09;;;;;;;10.20;5.97;;;15.60;99.90;;;;;;5029970;28;20069;-56
2023/05/14 06:11:35;;;;;;;9.85;6.07;;;15.70;99.90;;;;;;5045953;28;20025;-57
2023/05/14 06:14:00;;;;;;;7.68;5.75;;;15.70;99.90;;;;;;5033609;28;20087;-58
2023/05/14 06:16:26;;;;;;;7.88;6.50;;;15.70;99.90;;;;;;5039767;28;20075;-58
2023/05/14 06:18:53;;;;;;;9.85;6.05;;;15.80;99.90;;;;;;5044934;28;20029;-57
2023/05/14 06:21:19;;;;;;;9.15;5.85;;;15.80;99.90;;;;;;5031028;28;20534;-55
2023/05/14 06:23:44;;;;;;;7.18;5.78;;;15.90;99.90;;;;;;5030925;28;20026;-50
2023/05/14 06:26:10;;;;;;;6.65;6.03;;;15.90;99.90;;;;;;5034044;28;20104;-46
2023/05/14 06:28:36;;;;;;;7.25;6.10;;;15.90;99.90;;;;;;5034656;28;20029;-47
2023/05/14 06:31:01;;;;;;;8.13;5.60;;;15.90;99.90;;;;;;5034099;28;20496;-58
2023/05/14 06:33:30;;;;;;;7.70;5.57;;;15.90;99.90;;;;;;5034187;28;20040;-58
2023/05/14 06:35:59;;;;;;;7.45;5.57;;;15.90;99.90;;;;;;5034264;28;20451;-56
2023/05/14 06:38:26;;;;;;;6.63;5.68;;;15.90;99.90;;;;;;5036460;28;20602;-56
2023/05/14 06:40:54;;;;;;;6.88;5.35;;;15.90;99.90;;;;;;5039415;28;20163;-54
2023/05/14 06:43:20;;;;;;;7.18;5.82;;;15.90;99.90;;;;;;5054015;28;20025;-57
2023/05/14 06:45:49;;;;;;;8.20;5.25;;;16.00;99.90;;;;;;5045728;28;20086;-57
2023/05/14 06:48:20;;;;;;;6.15;5.53;;;16.00;99.90;;;;;;5047198;28;20512;-58
2023/05/14 06:50:46;;;;;;;5.68;4.88;;;16.00;99.90;;;;;;5042710;28;20681;-56
2023/05/14 06:53:12;;;;;;;5.32;4.70;;;15.90;99.90;;;;;;5034010;28;20048;-54
2023/05/14 06:55:38;;;;;;;7.03;4.82;;;15.90;99.90;;;;;;5034523;28;20026;-57
2023/05/14 06:58:06;;;;;;;6.18;5.57;;;15.90;99.90;;;;;;5035657;28;20021;-56
2023/05/14 07:00:32;;;;;;;6.93;5.82;;;16.00;99.90;;;;;;5033932;28;20515;-54
2023/05/14 07:02:57;;;;;;;7.40;5.18;;;16.00;99.90;;;;;;5033863;28;20100;-51
2023/05/14 07:05:24;;;;;;;6.85;5.45;;;16.10;99.90;;;;;;5033664;28;20091;-58
2023/05/14 07:07:49;;;;;;;6.78;6.07;;;16.10;99.90;;;;;;5033006;28;20025;-55
2023/05/14 07:10:15;;;;;;;8.50;6.75;;;16.20;99.90;;;;;;5041962;28;20021;-55
2023/05/14 07:12:41;;;;;;;7.93;6.13;;;16.20;99.90;;;;;;5032305;28;20048;-53
2023/05/14 07:15:07;;;;;;;8.93;6.20;;;16.30;99.90;;;;;;5033475;28;20025;-54
2023/05/14 07:17:33;;;;;;;7.47;5.90;;;16.30;99.90;;;;;;5040417;28;20104;-54
2023/05/14 07:19:59;;;;;;;19.95;15.15;;;16.20;99.90;;;;;;5040588;28;20424;-54
2023/05/14 07:22:24;;;;;;;9.32;6.40;;;16.10;99.90;;;;;;5042379;28;20535;-58
2023/05/14 07:24:50;;;;;;;8.15;6.05;;;16.10;99.90;;;;;;5036904;28;20036;-57
2023/05/14 07:27:18;;;;;;;7.63;6.43;;;16.10;99.90;;;;;;5043701;28;20022;-56
2023/05/14 07:29:44;;;;;;;8.90;7.28;;;16.10;99.90;;;;;;5042993;28;20025;-56
2023/05/14 07:32:10;;;;;;;8.63;6.57;;;16.00;99.90;;;;;;5034955;28;20029;-57
2023/05/14 07:34:35;;;;;;;7.68;6.57;;;15.90;99.90;;;;;;5034816;28;20018;-57
2023/05/14 07:37:01;;;;;;;10.00;7.75;;;15.90;99.90;;;;;;5038153;28;20021;-55
2023/05/14 07:39:27;;;;;;;9.43;8.30;;;15.90;99.90;;;;;;5038930;28;20026;-56
2023/05/14 07:41:53;;;;;;;8.40;7.03;;;15.90;99.90;;;;;;5038142;28;20118;-54
2023/05/14 07:44:20;;;;;;;9.65;7.68;;;15.90;99.90;;;;;;5038161;28;20163;-57
2023/05/14 07:46:46;;;;;;;10.50;8.13;;;15.90;99.90;;;;;;5039944;28;20028;-57
2023/05/14 07:49:12;;;;;;;9.70;8.70;;;15.90;99.90;;;;;;5040297;28;20082;-56
2023/05/14 07:51:38;;;;;;;9.25;7.93;;;15.90;99.90;;;;;;5042334;28;20033;-56
2023/05/14 07:54:04;;;;;;;11.43;9.90;;;15.90;99.90;;;;;;5042535;28;20078;-56
2023/05/14 07:56:30;;;;;;;10.18;9.10;;;15.80;99.90;;;;;;5051483;28;20025;-55
2023/05/14 07:58:56;;;;;;;8.80;8.00;;;15.80;99.90;;;;;;5041423;28;20071;-58
2023/05/14 08:01:21;;;;;;;9.88;8.13;;;15.80;99.90;;;;;;5047936;28;20483;-58
2023/05/14 08:03:47;;;;;;;9.48;7.43;;;15.80;99.90;;;;;;5032871;28;20024;-58
2023/05/14 08:06:13;;;;;;;9.48;8.48;;;15.70;99.90;;;;;;5032726;28;20037;-58
2023/05/14 08:08:39;;;;;;;9.55;7.65;;;15.70;99.90;;;;;;5030766;28;20515;-55
2023/05/14 08:11:05;;;;;;;14.48;9.07;;;15.70;99.90;;;;;;5037698;28;20028;-56
2023/05/14 08:13:31;;;;;;;10.48;9.30;;;15.70;99.90;;;;;;5032145;28;20027;-58
2023/05/14 08:15:56;;;;;;;11.85;9.73;;;15.70;99.90;;;;;;5031425;28;20036;-58
2023/05/14 08:18:22;;;;;;;10.40;9.25;;;15.70;99.90;;;;;;5036971;28;20079;-57
2023/05/14 08:20:48;;;;;;;15.55;10.77;;;15.70;99.90;;;;;;5040322;28;20086;-56
2023/05/14 08:23:13;;;;;;;13.70;10.10;;;15.70;99.90;;;;;;5039206;28;20075;-56
2023/05/14 08:25:39;;;;;;;12.05;10.85;;;15.80;99.90;;;;;;5038946;28;20021;-54
2023/05/14 08:28:05;;;;;;;12.82;9.60;;;15.90;99.90;;;;;;5038126;28;20091;-57
2023/05/14 08:30:31;;;;;;;10.55;9.02;;;15.90;99.90;;;;;;5043644;28;20033;-55
2023/05/14 08:32:57;;;;;;;8.27;7.45;;;16.00;99.90;;;;;;5036777;28;20044;-58
2023/05/14 08:35:23;;;;;;;10.68;6.88;;;16.10;99.90;;;;;;5043600;28;20529;-57
2023/05/14 08:37:49;;;;;;;8.25;6.72;;;16.10;99.90;;;;;;5037803;28;20022;-56
2023/05/14 08:40:15;;;;;;;8.38;6.50;;;16.20;99.90;;;;;;5038480;28;20047;-55
2023/05/14 08:42:42;;;;;;;7.07;6.30;;;16.20;99.90;;;;;;5036112;28;20048;-55
2023/05/14 08:45:20;;;;;;;8.85;7.00;;;16.20;99.90;;;;;;5042057;28;20112;-55
2023/05/14 08:47:50;;;;;;;10.57;7.43;;;16.30;99.90;;;;;;5044813;28;20412;-49
2023/05/14 08:50:17;;;;;;;18.42;7.60;;;16.40;99.90;;;;;;5049572;28;20029;-50
2023/05/14 08:52:43;;;;;;;8.40;7.60;;;16.40;99.90;;;;;;5031925;28;20100;-52
2023/05/14 08:55:10;;;;;;;12.00;7.67;;;16.50;99.90;;;;;;5038519;28;20029;-54
2023/05/14 08:57:36;;;;;;;8.82;7.93;;;16.50;99.90;;;;;;5051144;28;20251;-56
2023/05/14 09:00:07;;;;;;;8.52;7.03;;;16.60;99.90;;;;;;5050692;28;20025;-58
2023/05/14 09:02:34;;;;;;;7.55;6.85;;;16.60;99.90;;;;;;5051586;28;20056;-58
2023/05/14 09:05:02;;;;;;;9.10;7.25;;;16.80;99.90;;;;;;5051520;28;20044;-58
2023/05/14 09:07:28;;;;;;;9.43;8.32;;;16.80;99.90;;;;;;5050056;28;20098;-57
2023/05/14 09:09:54;;;;;;;9.98;7.85;;;16.90;99.90;;;;;;5051553;28;20071;-58
2023/05/14 09:12:20;;;;;;;10.30;7.17;;;16.80;99.90;;;;;;5051607;28;20507;-56
2023/05/14 09:14:47;;;;;;;9.60;7.13;;;16.90;99.90;;;;;;5051239;28;20037;-58
2023/05/14 09:17:13;;;;;;;;;;;16.90;99.90;;;;;;5051751;28;20025;-58
2023/05/14 09:19:46;;;;;;;9.30;8.15;;;16.90;99.90;;;;;;5051452;28;20429;-56
2023/05/14 09:22:13;;;;;;;9.88;7.78;;;16.90;99.90;;;;;;5051401;28;20443;-55
2023/05/14 09:24:38;;;;;;;;;;;17.00;99.90;;;;;;5051764;28;20480;-58
2023/05/14 09:27:05;;;;;;;14.43;8.48;;;17.10;99.90;;;;;;5051166;28;19905;-55
2023/05/14 09:29:31;;;;;;;10.23;8.07;;;17.20;99.90;;;;;;5051200;28;20025;-56
2023/05/14 09:31:59;;;;;;;9.27;7.63;;;17.20;99.90;;;;;;5050035;28;20032;-56
2023/05/14 09:34:25;;;;;;;10.57;8.38;;;17.30;99.90;;;;;;5051255;28;20021;-58
2023/05/14 09:37:01;;;;;;;10.38;7.93;;;17.40;99.90;;;;;;5051341;28;20017;-54
2023/05/14 09:39:28;;;;;;;13.07;7.15;;;17.50;99.90;;;;;;5051268;28;20427;-56
2023/05/14 09:41:55;;;;;;;10.00;6.47;;;17.60;99.90;;;;;;5051187;28;20021;-55
2023/05/14 09:44:21;;;;;;;7.65;6.75;;;17.70;99.90;;;;;;5051016;28;20033;-55
2023/05/14 09:46:48;;;;;;;9.43;7.38;;;17.70;99.90;;;;;;5051412;28;20539;-57
2023/05/14 09:49:14;;;;;;;8.68;7.13;;;17.70;99.90;;;;;;5050955;28;20108;-57
2023/05/14 09:51:40;;;;;;;6.95;6.25;;;17.70;99.90;;;;;;5051357;28;20032;-55
2023/05/14 09:54:07;;;;;;;12.80;8.33;;;17.70;99.90;;;;;;5049961;28;20056;-56
2023/05/14 09:56:34;;;;;;;11.63;7.28;;;17.70;99.90;;;;;;5051042;28;20021;-58
2023/05/14 09:59:00;;;;;;;;;;;17.70;99.90;;;;;;5051286;28;20023;-58
2023/05/14 10:01:28;;;;;;;10.32;9.05;;;17.70;99.90;;;;;;5055153;28;19905;-57
2023/05/14 10:03:54;;;;;;;10.23;9.15;;;17.80;99.90;;;;;;5054815;28;20036;-58
2023/05/14 10:06:24;;;;;;;8.85;7.95;;;17.90;99.90;;;;;;5054908;28;20029;-56
2023/05/14 10:08:54;;;;;;;11.90;10.73;;;18.00;99.90;;;;;;5054585;28;20158;-58
2023/05/14 10:11:24;;;;;;;10.63;9.60;;;18.10;99.90;;;;;;5053413;28;20032;-55
2023/05/14 10:14:00;;;;;;;11.43;10.25;;;18.20;99.90;;;;;;5054490;28;20483;-56
2023/05/14 10:16:36;;;;;;;13.80;11.43;;;18.30;99.60;;;;;;5054948;28;20048;-57
2023/05/14 10:19:08;;;;;;;11.27;10.27;;;18.30;99.90;;;;;;5054431;28;20442;-57
2023/05/14 10:21:35;;;;;;;11.60;10.40;;;18.50;99.90;;;;;;5053367;28;20569;-57
2023/05/14 10:24:03;;;;;;;17.13;12.27;;;18.50;98.80;;;;;;5054417;28;20017;-57
2023/05/14 10:26:30;;;;;;;13.63;12.18;;;18.50;99.00;;;;;;5054781;28;20028;-57
2023/05/14 10:28:57;;;;;;;11.80;9.85;;;18.60;99.90;;;;;;5054231;28;20100;-58
2023/05/14 10:31:45;;;;;;;12.40;11.15;;;18.80;99.80;;;;;;5054299;28;20021;-55
2023/05/14 10:34:37;;;;;;;14.50;11.10;;;19.00;97.50;;;;;;5052719;28;20036;-57
2023/05/14 10:37:05;;;;;;;11.02;9.63;;;19.00;95.90;;;;;;5053784;28;20501;-59
2023/05/14 10:39:57;;;;;;;11.85;10.60;;;19.00;96.90;;;;;;5046678;28;20112;-50
2023/05/14 10:42:26;;;;;;;12.07;10.40;;;19.00;97.70;;;;;;5033915;28;20029;-57
2023/05/14 10:45:01;;;;;;;12.95;11.57;;;19.00;97.50;;;;;;5034192;28;20025;-59
2023/05/14 10:47:30;;;;;;;15.05;11.40;;;19.00;97.70;;;;;;5033892;28;20051;-54
2023/05/14 10:50:01;;;;;;;11.75;10.60;;;19.00;96.70;;;;;;5035034;28;20025;-58
2023/05/14 10:52:27;;;;;;;13.10;10.75;;;19.10;96.80;;;;;;5035215;28;20411;-52
2023/05/14 10:54:55;;;;;;;12.37;11.13;;;19.10;96.60;;;;;;5036317;28;20032;-55
2023/05/14 10:57:26;;;;;;;10.77;9.77;;;19.00;96.70;;;;;;5042083;28;20021;-56
2023/05/14 10:59:56;;;;;;;10.95;9.15;;;19.00;96.60;;;;;;5042448;28;20029;-54
2023/05/14 11:02:42;;;;;;;8.68;7.88;;;19.10;96.60;;;;;;5044065;28;20114;-58
2023/05/14 11:05:14;;;;;;;12.43;8.70;;;19.10;96.00;;;;;;5043355;28;20030;-56
2023/05/14 11:07:44;;;;;;;11.18;8.90;;;19.20;96.90;;;;;;5037880;28;20030;-58
2023/05/14 11:10:18;;;;;;;8.60;7.70;;;19.10;95.50;;;;;;5043553;28;20083;-56
2023/05/14 11:12:46;;;;;;;8.98;7.50;;;19.00;93.90;;;;;;5050592;28;20472;-55
2023/05/14 11:15:17;;;;;;;48.72;34.03;;;18.80;95.00;;;;;;5063399;23;20049;-52
2023/05/14 11:17:45;;;;;;;12.68;11.38;;;18.60;96.00;;;;;;5052710;28;20040;-55
2023/05/14 11:20:12;;;;;;;7.55;6.65;;;18.60;95.50;;;;;;5053071;28;20032;-54
2023/05/14 11:22:39;;;;;;;8.57;7.32;;;18.50;96.30;;;;;;5053464;28;20494;-53
2023/05/14 11:25:06;;;;;;;7.72;6.88;;;18.40;96.50;;;;;;5040968;28;20021;-56
2023/05/14 11:27:37;;;;;;;6.45;5.75;;;18.30;96.20;;;;;;5032532;28;20034;-53
2023/05/14 11:30:04;;;;;;;9.43;6.30;;;18.00;95.90;;;;;;5023584;28;20054;-55
2023/05/14 11:32:33;;;;;;;7.55;6.60;;;17.90;97.10;;;;;;5026452;28;21547;-55
2023/05/14 11:34:59;;;;;;;9.32;5.90;;;17.80;98.70;;;;;;5030324;28;20412;-55
2023/05/14 11:37:25;;;;;;;7.20;5.55;;;17.80;98.50;;;;;;5033004;28;20024;-58
2023/05/14 11:39:54;;;;;;;6.88;5.57;;;17.70;98.30;;;;;;5032703;28;20466;-57
2023/05/14 11:42:21;;;;;;;7.82;5.53;;;17.60;97.90;;;;;;5018053;28;20127;-56
2023/05/14 11:44:48;;;;;;;5.40;4.68;;;17.50;98.60;;;;;;5032146;28;20498;-56
2023/05/14 11:47:15;;;;;;;5.18;4.68;;;17.40;98.60;;;;;;5031254;28;20034;-57
2023/05/14 11:49:41;;;;;;;;;;;17.40;99.10;;;;;;5027510;28;20538;-55
2023/05/14 11:52:13;;;;;;;6.60;5.38;;;17.30;99.90;;;;;;5032747;28;19913;-55
2023/05/14 11:54:40;;;;;;;6.82;4.85;;;17.20;99.90;;;;;;5033018;28;20044;-51
2023/05/14 11:57:11;;;;;;;5.88;4.55;;;17.20;99.90;;;;;;5027964;28;20021;-50
2023/05/14 11:59:38;;;;;;;6.05;5.00;;;17.10;99.90;;;;;;5032334;28;20029;-53
2023/05/14 12:02:07;;;;;;;5.75;4.72;;;17.10;99.90;;;;;;5031273;28;20396;-52
2023/05/14 12:04:33;;;;;;;3.88;3.25;;;17.10;99.90;;;;;;5032584;28;20029;-53
2023/05/14 12:07:06;;;;;;;4.20;3.78;;;17.00;99.80;;;;;;5032657;28;20124;-52
2023/05/14 12:09:40;;;;;;;6.63;4.82;;;16.90;99.90;;;;;;5032196;28;20075;-53
2023/05/14 12:12:10;;;;;;;6.13;4.45;;;16.80;99.90;;;;;;5027336;28;20099;-53
2023/05/14 12:14:41;;;;;;;7.43;5.53;;;16.70;99.90;;;;;;5032323;28;20108;-53
2023/05/14 12:17:15;;;;;;;5.90;4.65;;;16.70;99.90;;;;;;5032222;28;20108;-52
2023/05/14 12:19:42;;;;;;;5.70;4.53;;;16.70;99.90;;;;;;5032218;28;20364;-53
2023/05/14 12:22:09;;;;;;;;;;;16.70;99.90;;;;;;5032468;28;20057;-48
2023/05/14 12:24:35;;;;;;;5.13;3.50;;;16.70;99.90;;;;;;5032343;28;20382;-49
2023/05/14 12:27:01;;;;;;;4.20;3.78;;;16.60;99.90;;;;;;5032075;28;20025;-48
2023/05/14 12:29:27;;;;;;;5.70;3.92;;;16.60;99.90;;;;;;5031036;28;20029;-48
2023/05/14 12:31:57;;;;;;;5.25;4.75;;;16.60;99.90;;;;;;5031849;28;20025;-47
2023/05/14 12:34:22;;;;;;;6.55;5.00;;;16.50;99.90;;;;;;5032223;28;20100;-48
2023/05/14 12:36:48;;;;;;;7.38;4.30;;;16.50;99.90;;;;;;5031945;28;20025;-52
2023/05/14 12:39:14;;;;;;;7.40;4.95;;;16.60;99.90;;;;;;5029407;28;20151;-54
2023/05/14 12:41:40;;;;;;;6.68;4.50;;;16.60;99.90;;;;;;5031708;28;20500;-54
2023/05/14 12:44:06;;;;;;;5.38;3.85;;;16.60;99.90;;;;;;5025576;28;20026;-48